Bg Felixstowe — V2BR7 — position and weather

sailwx.info

Track history (hours):
 
Tides and Currents Weather Stations Pressure Air Temp Water Temp Dewpoint Dewpoint Depression Visibility Wind Speed Wind Dir Waves Ship Positions

Bg Felixstowe

Last reported at 2014-Sep-15 09:10 UTC. Time now 2014-Sep-16 19:34 UTC.
Position N 25°10' W 080°06'.

Length 139 m; draft 7.1 m.

Type: Ship (hazmat cat A). MMSI: 304906000.

Date/timePositionNaut miles runAvg speedWind from/ knotsBaromVisibWave heightAir tempDewpointWater temp
2014-Sep-15 09:10N 25°10' W 080°06'2113.1
2014-Sep-15 07:31N 25°30' W 079°60'1212.8
2014-Sep-15 06:33N 25°43' W 080°02'5 4.7
2014-Sep-15 05:25N 25°47' W 080°05'0 0.0
2014-Sep-15 04:28N 25°47' W 080°05'0 0.0
2014-Sep-15 03:33N 25°47' W 080°05'4 4.3
2014-Sep-15 02:30N 25°46' W 080°10'0 0.1
2014-Sep-15 01:21N 25°46' W 080°10'0 0.0
2014-Sep-14 22:29N 25°46' W 080°10'0 0.0
2014-Sep-14 17:12N 25°46' W 080°10'0 0.0
2014-Sep-14 16:24N 25°46' W 080°10'0 0.0
2014-Sep-14 13:30N 25°46' W 080°10'5 5.6
2014-Sep-14 12:34N 25°46' W 080°04'1312.9
2014-Sep-14 11:34N 25°33' W 079°60'  
2014-Sep-08 03:33N 25°32' W 079°60'1312.7
2014-Sep-08 02:33N 25°44' W 080°04'6 0.9
2014-Sep-07 19:12N 25°46' W 080°10'0 0.0
2014-Sep-07 15:29N 25°46' W 080°10'0 0.0
2014-Sep-07 13:16N 25°46' W 080°10'0 0.0
2014-Sep-07 12:32N 25°46' W 080°10'5 5.5
2014-Sep-07 11:33N 25°45' W 080°04'1312.5
2014-Sep-07 10:33N 25°33' W 080°00'  
Track history (hours):
 
Tides and Currents Weather Stations Pressure Air Temp Water Temp Dewpoint Dewpoint Depression Visibility Wind Speed Wind Dir Waves Ship Positions

Bg Felixstowe

Last reported at 2014-Sep-15 09:10 UTC. Time now 2014-Sep-16 19:34 UTC.
Position N 25°10' W 080°06'.

Length 139 m; draft 7.1 m.

Type: Ship (hazmat cat A). MMSI: 304906000.

Date/timePositionNaut miles runAvg speedWind from/ knotsBaromVisibWave heightAir tempDewpointWater temp
2014-Sep-15 09:10N 25°10' W 080°06'2113.1
2014-Sep-15 07:31N 25°30' W 079°60'1212.8
2014-Sep-15 06:33N 25°43' W 080°02'5 4.7
2014-Sep-15 05:25N 25°47' W 080°05'0 0.0
2014-Sep-15 04:28N 25°47' W 080°05'0 0.0
2014-Sep-15 03:33N 25°47' W 080°05'4 4.3
2014-Sep-15 02:30N 25°46' W 080°10'0 0.1
2014-Sep-15 01:21N 25°46' W 080°10'0 0.0
2014-Sep-14 22:29N 25°46' W 080°10'0 0.0
2014-Sep-14 17:12N 25°46' W 080°10'0 0.0
2014-Sep-14 16:24N 25°46' W 080°10'0 0.0
2014-Sep-14 13:30N 25°46' W 080°10'5 5.6
2014-Sep-14 12:34N 25°46' W 080°04'1312.9
2014-Sep-14 11:34N 25°33' W 079°60'  
2014-Sep-08 03:33N 25°32' W 079°60'1312.7
2014-Sep-08 02:33N 25°44' W 080°04'6 0.9
2014-Sep-07 19:12N 25°46' W 080°10'0 0.0
2014-Sep-07 15:29N 25°46' W 080°10'0 0.0
2014-Sep-07 13:16N 25°46' W 080°10'0 0.0
2014-Sep-07 12:32N 25°46' W 080°10'5 5.5
2014-Sep-07 11:33N 25°45' W 080°04'1312.5
2014-Sep-07 10:33N 25°33' W 080°00'  

Dump ship's entire track history